createdAt,value
2018-07-31T00:00:24.804Z,5.00
2018-07-31T00:01:24.757Z,5.00
2018-07-31T00:02:24.715Z,4.80
2018-07-31T00:03:24.742Z,4.80
2018-07-31T00:04:24.628Z,5.80
2018-07-31T00:05:24.580Z,4.20
2018-07-31T00:06:24.544Z,4.60
2018-07-31T00:07:24.499Z,4.70
2018-07-31T00:08:24.481Z,4.20
2018-07-31T00:09:24.411Z,5.50
2018-07-31T00:10:24.409Z,5.80
2018-07-31T00:11:24.322Z,4.60
2018-07-31T00:12:24.284Z,4.90
2018-07-31T00:13:24.258Z,4.60
2018-07-31T00:14:24.192Z,4.60
2018-07-31T00:15:24.148Z,6.20
2018-07-31T00:16:24.105Z,6.10
2018-07-31T00:17:24.063Z,4.30
2018-07-31T00:18:24.040Z,4.50
2018-07-31T00:19:23.978Z,5.50
2018-07-31T00:20:23.933Z,4.30
2018-07-31T00:21:23.890Z,5.10
2018-07-31T00:22:23.843Z,4.50
2018-07-31T00:23:23.832Z,4.80
2018-07-31T00:24:23.761Z,4.50
2018-07-31T00:25:23.714Z,4.40
2018-07-31T00:26:23.670Z,4.30
2018-07-31T00:27:23.627Z,4.80
2018-07-31T00:28:23.616Z,4.40
2018-07-31T00:29:23.538Z,4.50
2018-07-31T00:30:23.497Z,4.40
2018-07-31T00:31:23.458Z,4.60
2018-07-31T00:32:23.413Z,4.80
2018-07-31T00:33:23.402Z,4.40
2018-07-31T00:34:23.320Z,4.90
2018-07-31T00:35:23.287Z,5.20
2018-07-31T00:36:23.236Z,5.60
2018-07-31T00:37:23.191Z,4.30
2018-07-31T00:38:23.151Z,4.40
2018-07-31T00:39:23.130Z,4.90
2018-07-31T00:40:23.058Z,4.60
2018-07-31T00:41:23.018Z,4.60
2018-07-31T00:42:22.972Z,4.70
2018-07-31T00:43:22.927Z,4.70
2018-07-31T00:44:22.912Z,5.10
2018-07-31T00:45:22.839Z,5.70
2018-07-31T00:46:22.798Z,4.70
2018-07-31T00:47:22.754Z,4.40
2018-07-31T00:48:22.711Z,4.80
2018-07-31T00:49:22.690Z,4.60
2018-07-31T00:50:22.626Z,4.60
2018-07-31T00:51:22.575Z,5.30
2018-07-31T00:52:22.544Z,4.70
2018-07-31T00:53:22.489Z,4.60
2018-07-31T00:54:22.477Z,4.90
2018-07-31T00:55:22.402Z,4.90
2018-07-31T00:56:22.362Z,4.70
2018-07-31T00:57:22.320Z,4.40
2018-07-31T00:58:22.277Z,5.00
2018-07-31T00:59:22.248Z,4.70
2018-07-31T01:00:22.185Z,4.90
2018-07-31T01:01:22.153Z,4.60
2018-07-31T01:02:22.099Z,4.80
2018-07-31T01:03:22.053Z,5.10
2018-07-31T01:04:22.036Z,5.20
2018-07-31T01:05:21.964Z,4.60
2018-07-31T01:06:21.920Z,4.70
2018-07-31T01:07:21.877Z,4.80
2018-07-31T01:08:21.831Z,5.10
2018-07-31T01:09:21.813Z,5.00
2018-07-31T01:10:21.744Z,5.80
2018-07-31T01:11:21.703Z,5.00
2018-07-31T01:12:21.659Z,5.10
2018-07-31T01:13:21.614Z,5.00
2018-07-31T01:14:21.591Z,5.90
2018-07-31T01:15:21.524Z,5.30
2018-07-31T01:16:21.493Z,5.50
2018-07-31T01:17:21.451Z,4.80
2018-07-31T01:18:21.392Z,5.40
2018-07-31T01:19:21.373Z,4.80
2018-07-31T01:20:21.322Z,6.60
2018-07-31T01:21:21.259Z,6.30
2018-07-31T01:22:21.216Z,5.60
2018-07-31T01:23:21.173Z,5.40
2018-07-31T01:24:21.153Z,4.90
2018-07-31T01:25:21.095Z,6.20
2018-07-31T01:26:21.045Z,4.90
2018-07-31T01:27:20.996Z,6.10
2018-07-31T01:28:20.966Z,5.80
2018-07-31T01:29:20.932Z,6.80
2018-07-31T01:30:20.866Z,4.70
2018-07-31T01:31:20.819Z,4.70
2018-07-31T01:32:20.776Z,5.10
2018-07-31T01:33:20.732Z,5.00
2018-07-31T01:34:20.727Z,6.80
2018-07-31T01:35:20.657Z,5.40
2018-07-31T01:36:20.596Z,5.20
2018-07-31T01:37:20.553Z,5.30
2018-07-31T01:38:20.508Z,4.90
2018-07-31T01:39:20.495Z,5.00
2018-07-31T01:40:20.420Z,6.60
2018-07-31T01:41:20.384Z,4.90
2018-07-31T01:42:20.332Z,5.50
2018-07-31T01:43:20.288Z,4.70
2018-07-31T01:44:20.263Z,4.80
2018-07-31T01:45:20.200Z,4.70
2018-07-31T01:46:20.154Z,4.80
2018-07-31T01:47:20.120Z,4.80
2018-07-31T01:48:20.067Z,4.90
2018-07-31T01:49:20.049Z,5.40
2018-07-31T01:50:19.977Z,6.00
2018-07-31T01:51:19.935Z,5.10
2018-07-31T01:52:19.889Z,5.20
2018-07-31T01:53:19.848Z,6.70
2018-07-31T01:54:19.824Z,5.80
2018-07-31T01:55:19.753Z,6.70
2018-07-31T01:56:19.713Z,6.50
2018-07-31T01:57:19.674Z,4.80
2018-07-31T01:58:19.624Z,5.40
2018-07-31T01:59:19.618Z,5.60
2018-07-31T02:00:19.536Z,6.40
2018-07-31T02:01:19.491Z,5.60
2018-07-31T02:02:19.448Z,5.60
2018-07-31T02:03:19.403Z,5.70
2018-07-31T02:04:19.364Z,6.10
2018-07-31T02:05:19.335Z,6.30
2018-07-31T02:06:19.297Z,6.60
2018-07-31T02:07:19.233Z,5.20
2018-07-31T02:08:19.183Z,5.30
2018-07-31T02:09:19.136Z,5.80
2018-07-31T02:10:19.126Z,5.00
2018-07-31T02:11:19.063Z,5.30
2018-07-31T02:12:19.006Z,5.30
2018-07-31T02:13:18.960Z,5.20
2018-07-31T02:14:18.917Z,6.30
2018-07-31T02:15:18.916Z,5.50
2018-07-31T02:16:18.822Z,6.10
2018-07-31T02:17:18.839Z,6.50
2018-07-31T02:18:18.739Z,6.20
2018-07-31T02:19:18.697Z,5.40
2018-07-31T02:20:18.671Z,7.20
2018-07-31T02:21:18.607Z,6.60
2018-07-31T02:22:18.557Z,5.50
2018-07-31T02:23:18.521Z,6.30
2018-07-31T02:24:18.473Z,6.30
2018-07-31T02:25:18.451Z,5.70
2018-07-31T02:26:18.381Z,6.00
2018-07-31T02:27:18.339Z,6.30
2018-07-31T02:28:18.350Z,6.50
2018-07-31T02:29:18.249Z,5.60
2018-07-31T02:30:18.230Z,5.40
2018-07-31T02:31:18.162Z,5.60
2018-07-31T02:32:18.116Z,6.00
2018-07-31T02:33:18.080Z,5.90
2018-07-31T02:34:18.027Z,6.00
2018-07-31T02:35:18.007Z,6.30
2018-07-31T02:36:17.939Z,5.20
2018-07-31T02:37:17.892Z,5.30
2018-07-31T02:38:17.864Z,4.90
2018-07-31T02:39:17.803Z,5.90
2018-07-31T02:40:17.782Z,7.30
2018-07-31T02:41:17.719Z,6.30
2018-07-31T02:42:17.674Z,6.40
2018-07-31T02:43:17.627Z,5.10
2018-07-31T02:44:17.591Z,5.90
2018-07-31T02:45:17.560Z,5.70
2018-07-31T02:46:17.500Z,6.10
2018-07-31T02:47:17.453Z,5.30
2018-07-31T02:48:17.405Z,5.20
2018-07-31T02:49:17.361Z,6.40
2018-07-31T02:50:17.339Z,6.60
2018-07-31T02:51:17.273Z,5.80
2018-07-31T02:52:17.224Z,5.90
2018-07-31T02:53:17.186Z,5.90
2018-07-31T02:54:17.140Z,6.90
2018-07-31T02:55:17.116Z,6.20
2018-07-31T02:56:17.049Z,6.70
2018-07-31T02:57:17.000Z,6.00
2018-07-31T02:58:16.986Z,5.90
2018-07-31T02:59:16.916Z,5.70
2018-07-31T03:00:16.892Z,6.30
2018-07-31T03:01:16.824Z,5.20
2018-07-31T03:02:16.783Z,5.60
2018-07-31T03:03:16.735Z,6.10
2018-07-31T03:04:16.689Z,5.60
2018-07-31T03:05:16.669Z,5.70
2018-07-31T03:06:16.619Z,6.50
2018-07-31T03:07:16.559Z,6.10
2018-07-31T03:08:16.579Z,5.00
2018-07-31T03:09:16.473Z,5.70
2018-07-31T03:10:16.452Z,5.40
2018-07-31T03:11:16.382Z,5.30
2018-07-31T03:12:16.336Z,5.20
2018-07-31T03:13:16.289Z,5.90
2018-07-31T03:14:16.248Z,5.90
2018-07-31T03:15:16.232Z,5.00
2018-07-31T03:16:16.153Z,6.20
2018-07-31T03:17:16.123Z,6.30
2018-07-31T03:18:16.065Z,5.90
2018-07-31T03:19:16.021Z,6.10
2018-07-31T03:20:16.020Z,5.80
2018-07-31T03:21:15.933Z,6.10
2018-07-31T03:22:15.888Z,5.80
2018-07-31T03:23:15.843Z,5.10
2018-07-31T03:24:15.796Z,5.90
2018-07-31T03:25:15.754Z,6.40
2018-07-31T03:26:15.733Z,5.90
2018-07-31T03:27:15.661Z,5.50
2018-07-31T03:28:15.690Z,5.90
2018-07-31T03:29:15.572Z,5.60
2018-07-31T03:30:15.529Z,5.50
2018-07-31T03:31:15.511Z,5.20
2018-07-31T03:32:15.440Z,4.80
2018-07-31T03:33:15.396Z,6.20
2018-07-31T03:34:15.352Z,5.50
2018-07-31T03:35:15.305Z,6.80
2018-07-31T03:36:15.282Z,6.20
2018-07-31T03:37:15.216Z,6.00
2018-07-31T03:38:15.178Z,7.20
2018-07-31T03:39:15.133Z,6.10
2018-07-31T03:40:15.082Z,5.60
2018-07-31T03:41:15.058Z,7.80
2018-07-31T03:42:14.996Z,5.40
2018-07-31T03:43:14.954Z,6.20
2018-07-31T03:44:14.903Z,5.30
2018-07-31T03:45:14.858Z,6.60
2018-07-31T03:46:14.842Z,6.50
2018-07-31T03:47:14.768Z,7.10
2018-07-31T03:48:14.722Z,5.40
2018-07-31T03:49:14.677Z,5.40
2018-07-31T03:50:14.634Z,8.00
2018-07-31T03:51:14.610Z,6.10
2018-07-31T03:52:14.545Z,7.40
2018-07-31T03:53:14.504Z,5.80
2018-07-31T03:54:14.462Z,5.40
2018-07-31T03:55:14.415Z,6.00
2018-07-31T03:56:14.435Z,6.20
2018-07-31T03:57:14.322Z,6.00
2018-07-31T03:58:14.296Z,5.80
2018-07-31T03:59:14.232Z,5.80
2018-07-31T04:00:14.185Z,6.20
2018-07-31T04:01:14.165Z,5.40
2018-07-31T04:02:14.104Z,5.30
2018-07-31T04:03:14.055Z,6.10
2018-07-31T04:04:14.007Z,6.20
2018-07-31T04:05:13.965Z,6.10
2018-07-31T04:06:13.939Z,5.90
2018-07-31T04:07:13.875Z,5.20
2018-07-31T04:08:13.831Z,5.20
2018-07-31T04:09:13.786Z,5.10
2018-07-31T04:10:13.740Z,6.00
2018-07-31T04:11:13.720Z,5.70
2018-07-31T04:12:13.682Z,6.10
2018-07-31T04:13:13.620Z,5.70
2018-07-31T04:14:13.574Z,5.70
2018-07-31T04:15:13.521Z,5.30
2018-07-31T04:16:13.504Z,5.10
2018-07-31T04:17:13.555Z,6.10
2018-07-31T04:18:13.385Z,5.60
2018-07-31T04:19:13.346Z,5.10
2018-07-31T04:20:13.305Z,5.10
2018-07-31T04:21:13.275Z,5.90
2018-07-31T04:22:13.207Z,5.30
2018-07-31T04:23:13.166Z,5.30
2018-07-31T04:24:13.118Z,5.40
2018-07-31T04:25:13.078Z,6.20
2018-07-31T04:26:13.053Z,5.70
2018-07-31T04:27:12.987Z,5.20
2018-07-31T04:28:12.939Z,7.90
2018-07-31T04:29:12.893Z,5.20
2018-07-31T04:30:12.873Z,6.00
2018-07-31T04:31:12.832Z,5.30
2018-07-31T04:32:12.763Z,6.40
2018-07-31T04:33:12.713Z,4.90
2018-07-31T04:34:12.676Z,5.50
2018-07-31T04:35:12.631Z,5.00
2018-07-31T04:36:12.649Z,7.10
2018-07-31T04:37:12.541Z,6.40
2018-07-31T04:38:12.494Z,5.30
2018-07-31T04:39:12.450Z,5.10
2018-07-31T04:40:12.408Z,5.20
2018-07-31T04:41:12.398Z,4.90
2018-07-31T04:42:12.336Z,6.80
2018-07-31T04:43:12.276Z,6.90
2018-07-31T04:44:12.232Z,5.30
2018-07-31T04:45:12.186Z,6.00
2018-07-31T04:46:12.163Z,5.50
2018-07-31T04:47:12.099Z,4.90
2018-07-31T04:48:12.056Z,5.90
2018-07-31T04:49:12.004Z,5.40
2018-07-31T04:50:11.988Z,5.90
2018-07-31T04:51:11.962Z,5.40
2018-07-31T04:52:11.881Z,6.30
2018-07-31T04:53:11.828Z,6.00
2018-07-31T04:54:11.789Z,6.40
2018-07-31T04:55:11.740Z,5.40
2018-07-31T04:56:11.697Z,6.60
2018-07-31T04:57:11.676Z,6.50
2018-07-31T04:58:11.612Z,6.80
2018-07-31T04:59:11.573Z,6.30
2018-07-31T05:00:11.519Z,7.30
2018-07-31T05:01:11.475Z,7.80
2018-07-31T05:02:11.464Z,6.10
2018-07-31T05:03:11.390Z,6.40
2018-07-31T05:04:11.342Z,7.20
2018-07-31T05:05:11.298Z,8.10
2018-07-31T05:06:11.253Z,6.10
2018-07-31T05:07:11.235Z,8.40
2018-07-31T05:08:11.167Z,6.00
2018-07-31T05:09:11.120Z,6.30
2018-07-31T05:10:11.076Z,6.20
2018-07-31T05:11:11.037Z,7.50
2018-07-31T05:12:11.009Z,6.60
2018-07-31T05:13:10.943Z,7.20
2018-07-31T05:14:10.905Z,7.80
2018-07-31T05:15:10.864Z,7.00
2018-07-31T05:16:10.813Z,8.20
2018-07-31T05:17:10.792Z,7.00
2018-07-31T05:18:10.734Z,10.80
2018-07-31T05:19:10.679Z,7.40
2018-07-31T05:20:10.640Z,7.80
2018-07-31T05:21:10.592Z,7.60
2018-07-31T05:22:10.567Z,7.00
2018-07-31T05:23:10.509Z,8.10
2018-07-31T05:24:10.458Z,8.00
2018-07-31T05:25:10.434Z,8.20
2018-07-31T05:26:10.372Z,7.70
2018-07-31T05:27:10.350Z,8.00
2018-07-31T05:28:10.282Z,7.90
2018-07-31T05:29:10.236Z,6.70
2018-07-31T05:30:10.200Z,7.70
2018-07-31T05:31:10.151Z,7.70
2018-07-31T05:32:10.131Z,7.10
2018-07-31T05:33:10.062Z,8.10
2018-07-31T05:34:10.018Z,9.00
2018-07-31T05:35:09.977Z,8.50
2018-07-31T05:36:09.926Z,8.30
2018-07-31T05:37:09.911Z,9.70
2018-07-31T05:38:09.839Z,7.90
2018-07-31T05:39:09.799Z,7.40
2018-07-31T05:40:09.753Z,7.60
2018-07-31T05:41:09.710Z,8.10
2018-07-31T05:42:09.693Z,8.10
2018-07-31T05:43:09.626Z,8.20
2018-07-31T05:44:09.582Z,7.90
2018-07-31T05:45:09.536Z,7.60
2018-07-31T05:46:09.521Z,9.30
2018-07-31T05:47:09.473Z,7.60
2018-07-31T05:48:09.410Z,9.60
2018-07-31T05:49:09.367Z,7.90
2018-07-31T05:50:09.323Z,8.30
2018-07-31T05:51:09.278Z,8.30
2018-07-31T05:52:09.260Z,9.90
2018-07-31T05:53:09.194Z,9.60
2018-07-31T05:54:09.148Z,8.80
2018-07-31T05:55:09.108Z,7.20
2018-07-31T05:56:09.067Z,8.10
2018-07-31T05:57:09.042Z,11.90
2018-07-31T05:58:08.976Z,8.60
2018-07-31T05:59:08.940Z,10.60
2018-07-31T06:00:08.894Z,8.30
2018-07-31T06:01:08.852Z,9.80
2018-07-31T06:02:08.831Z,9.80
2018-07-31T06:03:08.765Z,9.00
2018-07-31T06:04:08.724Z,8.20
2018-07-31T06:05:08.680Z,8.70
2018-07-31T06:06:08.637Z,9.10
2018-07-31T06:07:08.622Z,8.70
2018-07-31T06:08:08.557Z,8.10
2018-07-31T06:09:08.510Z,8.60
2018-07-31T06:10:08.471Z,8.90
2018-07-31T06:11:08.428Z,9.00
2018-07-31T06:12:08.406Z,9.00
2018-07-31T06:13:08.337Z,9.70
2018-07-31T06:14:08.294Z,7.40
2018-07-31T06:15:08.311Z,8.50
2018-07-31T06:16:08.211Z,9.20
2018-07-31T06:17:08.202Z,10.10
2018-07-31T06:18:08.124Z,9.90
2018-07-31T06:19:08.081Z,8.50
2018-07-31T06:20:08.039Z,8.20
2018-07-31T06:21:07.999Z,9.10
2018-07-31T06:22:07.976Z,8.40
2018-07-31T06:23:07.919Z,9.90
2018-07-31T06:24:07.869Z,10.40
2018-07-31T06:25:07.826Z,8.60
2018-07-31T06:26:07.792Z,9.80
2018-07-31T06:27:07.874Z,8.50
2018-07-31T06:28:07.704Z,9.50
2018-07-31T06:29:07.659Z,8.80
2018-07-31T06:30:07.614Z,9.70
2018-07-31T06:31:07.575Z,8.20
2018-07-31T06:32:07.533Z,9.30
2018-07-31T06:33:07.513Z,8.40
2018-07-31T06:34:07.448Z,9.40
2018-07-31T06:35:07.408Z,9.70
2018-07-31T06:36:07.364Z,9.00
2018-07-31T06:37:07.328Z,10.10
2018-07-31T06:38:07.307Z,9.00
2018-07-31T06:39:07.239Z,9.20
2018-07-31T06:40:07.197Z,10.40
2018-07-31T06:41:07.156Z,9.70
2018-07-31T06:42:07.120Z,9.70
2018-07-31T06:43:07.098Z,9.50
2018-07-31T06:44:07.035Z,10.80
2018-07-31T06:45:06.988Z,9.80
2018-07-31T06:46:06.948Z,10.10
2018-07-31T06:47:06.909Z,9.40
2018-07-31T06:48:06.888Z,10.40
2018-07-31T06:49:06.830Z,9.70
2018-07-31T06:50:06.779Z,10.50
2018-07-31T06:51:06.741Z,10.00
2018-07-31T06:52:06.700Z,10.50
2018-07-31T06:53:06.682Z,10.20
2018-07-31T06:54:06.617Z,9.60
2018-07-31T06:55:06.577Z,9.50
2018-07-31T06:56:06.534Z,9.90
2018-07-31T06:57:06.493Z,12.50
2018-07-31T06:58:06.480Z,11.70
2018-07-31T06:59:06.406Z,10.70
2018-07-31T07:00:06.365Z,10.40
2018-07-31T07:01:06.329Z,10.50
2018-07-31T07:02:06.305Z,11.10
2018-07-31T07:03:06.272Z,12.40
2018-07-31T07:04:06.202Z,12.40
2018-07-31T07:05:06.159Z,9.50
2018-07-31T07:06:06.121Z,10.10
2018-07-31T07:07:06.074Z,10.00
2018-07-31T07:08:06.060Z,11.90
2018-07-31T07:09:05.990Z,11.20
2018-07-31T07:10:05.954Z,8.60
2018-07-31T07:11:05.916Z,11.90
2018-07-31T07:12:05.872Z,10.40
2018-07-31T07:13:05.852Z,9.00
2018-07-31T07:14:05.788Z,10.20
2018-07-31T07:15:05.749Z,10.20
2018-07-31T07:16:05.706Z,11.10
2018-07-31T07:17:05.664Z,10.90
2018-07-31T07:18:05.645Z,10.30
2018-07-31T07:19:05.580Z,10.30
2018-07-31T07:20:05.566Z,9.10
2018-07-31T07:21:05.498Z,10.50
2018-07-31T07:22:05.457Z,11.50
2018-07-31T07:23:05.441Z,10.30
2018-07-31T07:24:05.375Z,8.90
2018-07-31T07:25:05.337Z,9.20
2018-07-31T07:26:05.290Z,11.20
2018-07-31T07:27:05.266Z,10.20
2018-07-31T07:28:05.231Z,11.50
2018-07-31T07:29:05.170Z,9.50
2018-07-31T07:30:05.129Z,11.20
2018-07-31T07:31:05.088Z,11.80
2018-07-31T07:32:05.047Z,12.40
2018-07-31T07:33:05.029Z,13.10
2018-07-31T07:34:05.089Z,11.40
2018-07-31T07:35:04.927Z,11.10
2018-07-31T07:36:04.883Z,12.00
2018-07-31T07:37:04.838Z,11.70
2018-07-31T07:38:04.822Z,10.50
2018-07-31T07:39:04.757Z,10.90
2018-07-31T07:40:12.333Z,11.20
2018-07-31T07:41:04.672Z,10.00
2018-07-31T07:42:04.634Z,11.40
2018-07-31T07:43:04.615Z,10.60
2018-07-31T07:44:04.548Z,10.50
2018-07-31T07:45:04.509Z,10.10
2018-07-31T07:46:04.468Z,12.70
2018-07-31T07:47:04.424Z,11.30
2018-07-31T07:48:04.405Z,10.80
2018-07-31T07:49:04.341Z,11.50
2018-07-31T07:50:04.299Z,14.10
2018-07-31T07:51:04.257Z,12.60
2018-07-31T07:52:04.215Z,10.10
2018-07-31T07:53:04.198Z,12.00
2018-07-31T07:54:04.255Z,10.80
2018-07-31T07:55:04.094Z,11.60
2018-07-31T07:56:04.051Z,11.60
2018-07-31T07:57:04.009Z,11.60
2018-07-31T07:58:04.007Z,12.50
2018-07-31T07:59:03.922Z,10.50
2018-07-31T08:00:03.884Z,10.90
2018-07-31T08:01:03.841Z,11.60
2018-07-31T08:02:03.806Z,11.40
2018-07-31T08:03:03.766Z,11.20
2018-07-31T08:04:03.764Z,11.90
2018-07-31T08:05:03.681Z,11.80
2018-07-31T08:06:03.645Z,12.20
2018-07-31T08:07:03.599Z,10.80
2018-07-31T08:08:03.557Z,11.40
2018-07-31T08:09:03.540Z,10.50
2018-07-31T08:10:03.474Z,12.70
2018-07-31T08:11:03.439Z,10.40
2018-07-31T08:12:03.394Z,10.30
2018-07-31T08:13:03.360Z,11.50
2018-07-31T08:14:03.338Z,10.80
2018-07-31T08:15:03.336Z,10.90
2018-07-31T08:16:03.231Z,13.30
2018-07-31T08:17:03.191Z,10.50
2018-07-31T08:18:03.156Z,11.80
2018-07-31T08:19:03.136Z,10.60
2018-07-31T08:20:03.070Z,12.10
2018-07-31T08:21:03.031Z,10.10
2018-07-31T08:22:02.994Z,9.40
2018-07-31T08:23:02.956Z,11.30
2018-07-31T08:24:02.933Z,14.10
2018-07-31T08:25:02.865Z,10.50
2018-07-31T08:26:02.828Z,12.30
2018-07-31T08:27:02.786Z,10.80
2018-07-31T08:28:02.752Z,9.80
2018-07-31T08:29:02.732Z,9.80
2018-07-31T08:30:02.667Z,11.50
2018-07-31T08:31:02.631Z,10.60
2018-07-31T08:32:02.594Z,10.30
2018-07-31T08:33:02.545Z,11.20
2018-07-31T08:34:02.528Z,10.40
2018-07-31T08:35:02.466Z,9.90
2018-07-31T08:36:02.428Z,10.60
2018-07-31T08:37:02.401Z,11.40
2018-07-31T08:38:02.346Z,11.10
2018-07-31T08:39:02.330Z,11.70
2018-07-31T08:40:02.271Z,10.50
2018-07-31T08:41:02.225Z,13.10
2018-07-31T08:42:02.185Z,9.10
2018-07-31T08:43:02.143Z,12.30
2018-07-31T08:44:02.124Z,9.90
2018-07-31T08:45:02.079Z,11.20
2018-07-31T08:46:02.024Z,10.90
2018-07-31T08:47:01.982Z,10.10
2018-07-31T08:48:01.945Z,10.80
2018-07-31T08:49:01.925Z,10.40
2018-07-31T08:50:01.864Z,11.00
2018-07-31T08:51:01.829Z,10.10
2018-07-31T08:52:01.787Z,10.10
2018-07-31T08:53:01.742Z,10.20
2018-07-31T08:54:01.726Z,8.30
2018-07-31T08:55:01.663Z,10.30
2018-07-31T08:56:01.622Z,12.40
2018-07-31T08:57:01.642Z,12.50
2018-07-31T08:58:01.544Z,9.90
2018-07-31T08:59:01.525Z,9.20
2018-07-31T09:00:01.460Z,9.60
2018-07-31T09:01:01.422Z,8.10
2018-07-31T09:02:01.394Z,8.20
2018-07-31T09:03:01.346Z,7.50
2018-07-31T09:04:01.325Z,9.70
2018-07-31T09:05:01.262Z,9.10
2018-07-31T09:06:01.231Z,9.40
2018-07-31T09:07:01.185Z,9.90
2018-07-31T09:08:01.152Z,9.50
2018-07-31T09:09:01.127Z,9.40
2018-07-31T09:10:01.066Z,9.20
2018-07-31T09:11:01.029Z,7.30
2018-07-31T09:12:00.996Z,8.70
2018-07-31T09:13:00.945Z,6.50
2018-07-31T09:14:00.925Z,7.60
2018-07-31T09:15:00.870Z,6.20
2018-07-31T09:16:00.824Z,7.90
2018-07-31T09:17:00.789Z,9.70
2018-07-31T09:18:00.751Z,8.40
2018-07-31T09:19:00.739Z,8.50
2018-07-31T09:20:00.667Z,7.90
2018-07-31T09:21:00.629Z,6.80
2018-07-31T09:22:00.593Z,7.10
2018-07-31T09:23:00.553Z,7.50
2018-07-31T09:24:00.534Z,8.30
2018-07-31T09:25:00.475Z,7.80
2018-07-31T09:26:00.445Z,8.10
2018-07-31T09:27:00.399Z,7.60
2018-07-31T09:28:00.355Z,8.40
2018-07-31T09:29:00.355Z,7.80
2018-07-31T09:30:00.283Z,7.60
2018-07-31T09:31:00.360Z,6.60
2018-07-31T09:32:00.201Z,9.50
2018-07-31T09:33:00.166Z,6.00
2018-07-31T09:34:00.134Z,7.10
2018-07-31T09:35:00.117Z,5.90
2018-07-31T09:36:00.046Z,6.40
2018-07-31T09:37:00.014Z,7.60
2018-07-31T09:37:59.991Z,6.50
2018-07-31T09:38:59.937Z,4.70
2018-07-31T09:39:59.924Z,5.90
2018-07-31T09:40:59.856Z,6.40
2018-07-31T09:41:59.832Z,7.00
2018-07-31T09:42:59.771Z,4.90
2018-07-31T09:43:59.734Z,5.30
2018-07-31T09:44:59.715Z,6.50
2018-07-31T09:45:59.653Z,4.60
2018-07-31T09:46:59.628Z,5.50
2018-07-31T09:47:59.582Z,3.80
2018-07-31T09:49:00.119Z,4.20
2018-07-31T09:49:59.555Z,5.80
2018-07-31T09:50:59.466Z,5.70
2018-07-31T09:51:59.429Z,5.00
2018-07-31T09:52:59.385Z,4.00
2018-07-31T09:53:59.350Z,4.10
2018-07-31T09:54:59.335Z,5.00
2018-07-31T09:55:59.272Z,4.20
2018-07-31T09:56:59.238Z,4.50
2018-07-31T09:57:59.196Z,6.20
2018-07-31T09:58:59.199Z,5.80
2018-07-31T09:59:59.141Z,4.10
2018-07-31T10:00:59.083Z,4.80
2018-07-31T10:01:59.046Z,4.90
2018-07-31T10:02:59.005Z,4.60
2018-07-31T10:03:58.969Z,4.60
2018-07-31T10:04:58.982Z,5.30
2018-07-31T10:05:58.895Z,4.00
2018-07-31T10:06:58.857Z,6.40
2018-07-31T10:07:58.819Z,4.80
2018-07-31T10:08:58.785Z,4.70
2018-07-31T10:09:58.767Z,5.10
2018-07-31T10:10:58.706Z,5.50
2018-07-31T10:11:58.711Z,4.30
2018-07-31T10:12:58.632Z,4.70
2018-07-31T10:13:58.595Z,5.30
2018-07-31T10:14:58.580Z,5.10
2018-07-31T10:15:58.518Z,5.30
2018-07-31T10:16:58.479Z,6.40
2018-07-31T10:17:58.549Z,4.50
2018-07-31T10:18:58.408Z,5.10
2018-07-31T10:19:58.392Z,3.30
2018-07-31T10:20:58.329Z,4.50
2018-07-31T10:21:58.297Z,5.20
2018-07-31T10:22:58.259Z,4.10
2018-07-31T10:23:58.217Z,2.90
2018-07-31T10:24:58.206Z,3.90
2018-07-31T10:25:58.141Z,4.60
2018-07-31T10:26:58.103Z,4.10
2018-07-31T10:27:58.065Z,4.20
2018-07-31T10:28:58.028Z,3.40
2018-07-31T10:29:58.021Z,4.50
2018-07-31T10:30:58.036Z,3.90
2018-07-31T10:31:57.916Z,4.80
2018-07-31T10:32:57.905Z,4.40
2018-07-31T10:33:57.850Z,3.70
2018-07-31T10:34:57.826Z,5.00
2018-07-31T10:35:57.769Z,4.90
2018-07-31T10:36:57.730Z,3.80
2018-07-31T10:37:57.712Z,4.40
2018-07-31T10:38:57.657Z,3.90
2018-07-31T10:39:57.640Z,4.50
2018-07-31T10:40:57.576Z,4.20
2018-07-31T10:41:57.539Z,3.80
2018-07-31T10:42:57.503Z,5.90
2018-07-31T10:43:57.498Z,3.70
2018-07-31T10:44:57.464Z,4.10
2018-07-31T10:45:57.391Z,3.90
2018-07-31T10:46:57.348Z,6.20
2018-07-31T10:47:57.311Z,5.30
2018-07-31T10:48:57.289Z,4.30
2018-07-31T10:49:57.259Z,3.60
2018-07-31T10:50:57.231Z,3.00
2018-07-31T10:51:57.189Z,4.40
2018-07-31T10:52:57.144Z,4.30
2018-07-31T10:53:57.091Z,3.80
2018-07-31T10:54:57.089Z,3.10
2018-07-31T10:55:57.033Z,3.50
2018-07-31T10:56:57.006Z,3.50
2018-07-31T10:57:56.954Z,3.30
2018-07-31T10:58:56.899Z,4.60
2018-07-31T10:59:56.930Z,4.20
2018-07-31T11:00:56.825Z,3.20
2018-07-31T11:01:56.789Z,3.20
2018-07-31T11:02:56.776Z,2.90
2018-07-31T11:03:56.770Z,3.40
2018-07-31T11:04:56.673Z,3.10
2018-07-31T11:05:56.670Z,4.30
2018-07-31T11:06:56.603Z,3.90
2018-07-31T11:07:56.573Z,2.50
2018-07-31T11:08:56.530Z,3.20
2018-07-31T11:09:56.490Z,2.50
2018-07-31T11:10:56.486Z,2.30
2018-07-31T11:11:56.418Z,2.50
2018-07-31T11:12:56.378Z,3.50
2018-07-31T11:13:56.344Z,2.60
2018-07-31T11:14:56.325Z,2.30
2018-07-31T11:15:56.295Z,2.90
2018-07-31T11:16:56.226Z,2.40
2018-07-31T11:17:56.195Z,3.80
2018-07-31T11:18:56.160Z,4.40
2018-07-31T11:19:56.119Z,3.30
2018-07-31T11:20:56.166Z,3.20
2018-07-31T11:21:56.047Z,3.10
2018-07-31T11:22:56.025Z,3.10
2018-07-31T11:23:55.967Z,3.00
2018-07-31T11:24:55.935Z,3.20
2018-07-31T11:25:55.925Z,2.60
2018-07-31T11:26:55.859Z,2.00
2018-07-31T11:27:55.825Z,2.00
2018-07-31T11:28:55.788Z,3.30
2018-07-31T11:29:55.746Z,4.10
2018-07-31T11:30:55.744Z,2.90
2018-07-31T11:31:55.678Z,2.90
2018-07-31T11:32:55.635Z,3.30
2018-07-31T11:33:55.607Z,2.50
2018-07-31T11:34:55.572Z,3.40
2018-07-31T11:35:55.546Z,5.80
2018-07-31T11:36:55.493Z,3.60
2018-07-31T11:37:55.455Z,3.30
2018-07-31T11:38:55.434Z,3.60
2018-07-31T11:39:55.375Z,3.10
2018-07-31T11:40:55.371Z,3.00
2018-07-31T11:41:55.309Z,4.10
2018-07-31T11:42:55.271Z,2.70
2018-07-31T11:43:55.260Z,2.90
2018-07-31T11:44:55.201Z,2.90
2018-07-31T11:45:55.181Z,3.90
2018-07-31T11:46:55.115Z,5.30
2018-07-31T11:47:55.087Z,3.50
2018-07-31T11:48:55.046Z,3.30
2018-07-31T11:49:55.098Z,3.50
2018-07-31T11:50:54.997Z,3.30
2018-07-31T11:51:54.933Z,3.50
2018-07-31T11:52:54.897Z,2.30
2018-07-31T11:53:54.858Z,3.40
2018-07-31T11:54:54.815Z,3.80
2018-07-31T11:55:54.842Z,3.20
2018-07-31T11:56:54.743Z,2.20
2018-07-31T11:57:54.709Z,2.60
2018-07-31T11:58:54.680Z,3.10
2018-07-31T11:59:54.632Z,2.80
2018-07-31T12:00:54.622Z,2.70
2018-07-31T12:01:54.566Z,3.30
2018-07-31T12:02:54.536Z,2.30
2018-07-31T12:03:54.488Z,2.40
2018-07-31T12:04:54.451Z,2.80
2018-07-31T12:05:54.434Z,3.70
2018-07-31T12:06:54.374Z,2.90
2018-07-31T12:07:54.330Z,2.80
2018-07-31T12:08:54.296Z,3.60
2018-07-31T12:09:54.307Z,2.00
2018-07-31T12:10:54.246Z,2.80
2018-07-31T12:11:54.188Z,3.20
2018-07-31T12:12:54.163Z,2.40
2018-07-31T12:13:54.133Z,3.60
2018-07-31T12:14:54.078Z,2.90
2018-07-31T12:15:54.083Z,1.90
2018-07-31T12:16:53.995Z,2.10
2018-07-31T12:17:53.960Z,2.90
2018-07-31T12:18:53.922Z,3.30
2018-07-31T12:19:53.891Z,3.90
2018-07-31T12:20:53.986Z,3.00
2018-07-31T12:21:53.807Z,3.50
2018-07-31T12:22:53.785Z,1.80
2018-07-31T12:23:53.736Z,2.00
2018-07-31T12:24:53.694Z,2.60
2018-07-31T12:25:53.682Z,3.00
2018-07-31T12:26:53.630Z,2.70
2018-07-31T12:27:53.589Z,2.80
2018-07-31T12:28:53.548Z,2.80
2018-07-31T12:29:53.510Z,4.10
2018-07-31T12:30:53.513Z,2.00
2018-07-31T12:31:53.432Z,2.50
2018-07-31T12:32:53.415Z,2.00
2018-07-31T12:33:53.364Z,3.40
2018-07-31T12:34:53.327Z,3.20
2018-07-31T12:35:53.308Z,1.80
2018-07-31T12:36:53.247Z,2.00
2018-07-31T12:37:53.561Z,2.90
2018-07-31T12:38:53.171Z,2.20
2018-07-31T12:39:53.141Z,1.80
2018-07-31T12:40:53.120Z,3.00
2018-07-31T12:41:53.085Z,2.70
2018-07-31T12:42:53.022Z,2.80
2018-07-31T12:43:52.982Z,4.00
2018-07-31T12:44:52.965Z,2.00
2018-07-31T12:45:52.910Z,3.40
2018-07-31T12:46:52.909Z,2.60
2018-07-31T12:47:52.833Z,2.70
2018-07-31T12:48:52.799Z,2.40
2018-07-31T12:49:52.793Z,2.20
2018-07-31T12:50:52.730Z,2.70
2018-07-31T12:51:52.710Z,3.70
2018-07-31T12:52:52.654Z,2.90
2018-07-31T12:53:52.624Z,3.00
2018-07-31T12:54:52.572Z,3.20
2018-07-31T12:55:52.532Z,2.40
2018-07-31T12:56:52.528Z,2.90
2018-07-31T12:57:52.466Z,3.40
2018-07-31T12:58:53.340Z,2.70
2018-07-31T12:59:52.414Z,2.50
2018-07-31T13:00:52.354Z,3.50
2018-07-31T13:01:52.359Z,2.10
2018-07-31T13:02:52.283Z,3.00
2018-07-31T13:03:52.254Z,2.80
2018-07-31T13:04:52.207Z,2.80
2018-07-31T13:05:52.163Z,4.20
2018-07-31T13:06:52.153Z,4.00
2018-07-31T13:07:52.088Z,3.40
2018-07-31T13:08:52.058Z,3.00
2018-07-31T13:09:52.018Z,3.10
2018-07-31T13:10:51.978Z,4.30
2018-07-31T13:11:52.308Z,3.10
2018-07-31T13:12:51.903Z,4.10
2018-07-31T13:13:51.865Z,4.10